Time;durP1;ratioP1;P1;durP2;ratioP2;P2;SDS_P1;SDS_P2;PMS_P1;PMS_P2;Temp;Humidity;BMP_temperature;BMP_pressure;BME280_temperature;BME280_humidity;BME280_pressure;Samples;Min_cycle;Max_cycle;Signal;HPM_P1;HPM_P2
2022/02/15 00:01:40;;;;;;;8.45;5.55;;;;;;;5.62;42.27;99737.63;3417207;28;20379;-76
2022/02/15 00:03:21;;;;;;;11.75;5.68;;;;;;;5.60;42.27;99728.19;3414760;29;20058;-77
2022/02/15 00:05:01;;;;;;;12.75;6.40;;;;;;;5.59;42.68;99721.25;3399971;29;20630;-79
2022/02/15 00:06:42;;;;;;;9.15;5.47;;;;;;;5.60;42.39;99720.25;3412065;29;20105;-78
2022/02/15 00:08:24;;;;;;;7.80;5.05;;;;;;;5.59;42.44;99727.38;3414567;29;20047;-77
2022/02/15 00:10:05;;;;;;;9.00;5.82;;;;;;;5.60;42.35;99723.75;3414492;29;20043;-76
2022/02/15 00:11:46;;;;;;;10.82;6.63;;;;;;;5.60;42.30;99726.41;3414481;28;20054;-75
2022/02/15 00:13:26;;;;;;;8.88;5.38;;;;;;;5.60;42.39;99722.91;3414048;29;20567;-76
2022/02/15 00:15:08;;;;;;;7.13;4.95;;;;;;;5.58;42.49;99728.38;3414095;29;20039;-76
2022/02/15 00:16:50;;;;;;;7.95;6.13;;;;;;;5.57;42.44;99718.78;3414380;29;20070;-75
2022/02/15 00:18:31;;;;;;;8.90;5.57;;;;;;;5.56;42.47;99727.69;3414172;29;20110;-76
2022/02/15 00:20:12;;;;;;;11.93;5.85;;;;;;;5.56;42.57;99725.06;3414331;29;20090;-76
2022/02/15 00:21:53;;;;;;;9.52;6.40;;;;;;;5.56;42.61;99740.91;3414525;28;20043;-76
2022/02/15 00:23:34;;;;;;;9.02;5.55;;;;;;;5.53;42.59;99724.56;3414940;29;20159;-77
2022/02/15 00:25:16;;;;;;;10.73;5.88;;;;;;;5.56;42.62;99726.88;3414388;29;20042;-76
2022/02/15 00:26:57;;;;;;;6.32;4.95;;;;;;;5.54;42.50;99720.91;3414356;29;20043;-77
2022/02/15 00:28:38;;;;;;;6.18;5.13;;;;;;;5.56;42.58;99727.69;3413018;29;20522;-76
2022/02/15 00:30:18;;;;;;;10.95;6.75;;;;;;;5.53;42.79;99721.91;3400063;29;20095;-77
2022/02/15 00:31:59;;;;;;;11.45;6.18;;;;;;;5.52;42.55;99720.25;3411443;28;20047;-75
2022/02/15 00:33:40;;;;;;;9.75;5.47;;;;;;;5.52;42.66;99729.00;3400141;29;20059;-78
2022/02/15 00:35:21;;;;;;;8.15;6.10;;;;;;;5.50;42.72;99731.00;3396674;29;20039;-73
2022/02/15 00:37:02;;;;;;;8.45;5.40;;;;;;;5.46;42.54;99727.00;3411197;29;20043;-74
2022/02/15 00:38:43;;;;;;;7.05;5.30;;;;;;;5.48;42.69;99725.03;3400006;29;20039;-75
2022/02/15 00:40:24;;;;;;;11.55;6.35;;;;;;;5.51;42.75;99729.19;3411088;29;20089;-77
2022/02/15 00:42:05;;;;;;;10.20;5.40;;;;;;;5.47;42.75;99733.94;3414251;29;20051;-75
2022/02/15 00:43:45;;;;;;;10.18;5.78;;;;;;;5.43;42.78;99728.16;3414067;29;20043;-74
2022/02/15 00:45:26;;;;;;;8.63;6.00;;;;;;;5.48;42.90;99746.19;3399422;29;20044;-75
2022/02/15 00:47:07;;;;;;;8.82;6.35;;;;;;;5.45;42.79;99743.88;3411218;29;20387;-75
2022/02/15 00:48:47;;;;;;;7.50;5.45;;;;;;;5.48;42.74;99746.19;3400011;29;20062;-75
2022/02/15 00:50:28;;;;;;;8.43;5.22;;;;;;;5.47;42.94;99733.94;3413439;29;20047;-74
2022/02/15 00:52:09;;;;;;;10.68;5.82;;;;;;;5.48;42.94;99740.91;3416029;28;20051;-76
2022/02/15 00:53:50;;;;;;;10.35;6.03;;;;;;;5.50;42.97;99738.06;3416242;29;20458;-77
2022/02/15 00:55:30;;;;;;;7.28;5.18;;;;;;;5.49;42.88;99734.63;3401742;29;20040;-77
2022/02/15 00:57:11;;;;;;;10.45;6.45;;;;;;;5.50;43.01;99731.00;3413758;29;20436;-77
2022/02/15 00:58:52;;;;;;;8.25;5.40;;;;;;;5.48;42.87;99740.91;3401845;29;20047;-77
2022/02/15 01:00:33;;;;;;;8.03;5.63;;;;;;;5.46;43.03;99732.28;3399484;29;20058;-77
2022/02/15 01:02:14;;;;;;;8.45;6.20;;;;;;;5.43;42.96;99733.44;3413724;28;20058;-78
2022/02/15 01:03:55;;;;;;;7.97;5.65;;;;;;;5.45;43.13;99728.84;3416488;29;20054;-76
2022/02/15 01:05:35;;;;;;;8.70;5.72;;;;;;;5.46;43.19;99734.94;3415712;29;20035;-76
2022/02/15 01:07:16;;;;;;;9.77;5.82;;;;;;;5.47;43.09;99749.81;3402089;29;20051;-77
2022/02/15 01:08:57;;;;;;;7.93;5.43;;;;;;;5.48;43.23;99751.47;3413592;29;20110;-76
2022/02/15 01:10:39;;;;;;;10.68;6.50;;;;;;;5.48;43.11;99751.47;3402214;29;20044;-77
2022/02/15 01:12:20;;;;;;;9.68;6.60;;;;;;;5.46;43.01;99742.88;3413496;28;20039;-76
2022/02/15 01:14:00;;;;;;;7.47;5.78;;;;;;;5.46;43.18;99745.50;3402562;29;20055;-75
2022/02/15 01:15:41;;;;;;;7.95;5.80;;;;;;;5.46;43.10;99748.97;3386197;29;20511;-78
2022/02/15 01:17:22;;;;;;;10.98;6.43;;;;;;;5.44;43.25;99747.47;3396622;29;20047;-76
2022/02/15 01:19:03;;;;;;;10.68;6.22;;;;;;;5.42;43.29;99742.38;3399974;29;20052;-77
2022/02/15 01:20:45;;;;;;;8.97;6.30;;;;;;;5.43;43.31;99748.47;3413673;29;20901;-77
2022/02/15 01:22:25;;;;;;;7.75;5.45;;;;;;;5.39;43.41;99741.84;3416210;28;20349;-76
2022/02/15 01:24:06;;;;;;;11.68;6.63;;;;;;;5.41;43.34;99747.81;3401810;29;20137;-76
2022/02/15 01:25:47;;;;;;;7.93;5.93;;;;;;;5.39;43.34;99747.13;3398798;29;20079;-77
2022/02/15 01:27:28;;;;;;;7.22;5.60;;;;;;;5.39;43.43;99747.94;3413156;29;20134;-76
2022/02/15 01:29:10;;;;;;;10.65;6.93;;;;;;;5.38;43.34;99756.06;3388660;29;20056;-76
2022/02/15 01:30:51;;;;;;;9.50;6.40;;;;;;;5.43;43.33;99766.97;3423030;28;20042;-76
2022/02/15 01:32:32;;;;;;;10.88;6.40;;;;;;;5.38;43.43;99764.00;3418776;28;20078;-80
2022/02/15 01:34:15;;;;;;;9.23;6.10;;;;;;;5.42;43.60;99781.16;3389231;29;20058;-74
2022/02/15 01:35:56;;;;;;;7.20;5.22;;;;;;;5.32;43.53;99756.69;3383509;29;20135;-76
2022/02/15 01:37:37;;;;;;;11.18;6.78;;;;;;;5.40;43.48;99769.94;3386237;29;20132;-76
2022/02/15 01:39:18;;;;;;;7.68;5.45;;;;;;;5.36;43.35;99779.16;3396685;29;20507;-76
2022/02/15 01:41:01;;;;;;;8.77;6.32;;;;;;;5.38;43.81;99777.19;3373071;29;20105;-75
2022/02/15 01:42:44;;;;;;;10.10;7.30;;;;;;;5.32;43.75;99767.25;3382509;29;20058;-78
2022/02/15 01:44:25;;;;;;;11.82;7.47;;;;;;;5.34;43.89;99779.31;3383852;29;20048;-78
2022/02/15 01:46:07;;;;;;;11.90;6.95;;;;;;;5.37;43.55;99784.31;3409958;29;20071;-76
2022/02/15 01:47:49;;;;;;;10.82;6.65;;;;;;;5.38;43.73;99785.13;3401770;29;20439;-78
2022/02/15 01:49:30;;;;;;;9.27;6.38;;;;;;;5.36;43.73;99774.72;3399325;29;20054;-76
2022/02/15 01:51:11;;;;;;;11.98;6.97;;;;;;;5.36;43.83;99784.47;3401828;29;20040;-76
2022/02/15 01:52:52;;;;;;;12.88;6.70;;;;;;;5.39;43.68;99784.13;3385731;29;20427;-75
2022/02/15 01:54:34;;;;;;;11.57;6.72;;;;;;;5.40;43.91;99783.16;3396901;29;20075;-78
2022/02/15 01:56:15;;;;;;;11.07;5.90;;;;;;;5.39;44.02;99787.59;3398740;29;20044;-78
2022/02/15 01:57:56;;;;;;;9.20;5.93;;;;;;;5.33;43.84;99774.22;3398960;29;20048;-79
2022/02/15 01:59:42;;;;;;;8.90;6.03;;;;;;;5.30;44.19;99770.06;3399580;29;20334;-79
2022/02/15 02:01:25;;;;;;;10.30;6.60;;;;;;;5.36;44.08;99781.81;3385774;29;20044;-78
2022/02/15 02:03:25;;;;;;;12.60;6.68;;;;;;;5.37;44.06;99796.66;3388284;29;20230;-79
2022/02/15 02:07:06;;;;;;;9.05;6.32;;;;;;;5.36;44.14;99795.84;3414790;29;20046;-77
2022/02/15 02:08:51;;;;;;;10.35;6.55;;;;;;;5.36;44.10;99784.47;3401674;29;20055;-78
2022/02/15 02:10:32;;;;;;;9.38;6.50;;;;;;;5.36;44.13;99795.84;3413401;29;20043;-78
2022/02/15 02:12:16;;;;;;;10.80;6.35;;;;;;;5.35;44.16;99782.81;3401728;29;20508;-79
2022/02/15 02:14:09;;;;;;;10.23;6.57;;;;;;;5.35;44.08;99793.38;3400645;29;20040;-76
2022/02/15 02:15:58;;;;;;;12.68;7.43;;;;;;;5.33;44.13;99782.13;3399265;29;20496;-76
2022/02/15 02:17:59;;;;;;;11.35;6.95;;;;;;;5.32;44.16;99791.03;3387747;29;20083;-75
2022/02/15 02:19:40;;;;;;;10.48;7.35;;;;;;;5.33;44.54;99790.06;3401455;29;20066;-74
2022/02/15 02:21:33;;;;;;;11.73;7.28;;;;;;;5.33;44.58;99793.53;3390654;29;20142;-74
2022/02/15 02:23:18;;;;;;;10.77;7.35;;;;;;;5.29;44.51;99800.09;3386833;29;20547;-76
2022/02/15 02:25:00;;;;;;;10.43;6.80;;;;;;;5.27;44.46;99794.16;3388257;29;20131;-75
2022/02/15 02:26:42;;;;;;;;;;;;;;;5.38;44.05;99790.41;3398958;29;20525;-74
2022/02/15 02:28:24;;;;;;;10.85;6.57;;;;;;;5.32;44.24;99805.09;3398694;29;20392;-76
2022/02/15 02:30:07;;;;;;;9.90;6.22;;;;;;;5.30;44.35;99800.97;3412233;29;20043;-74
2022/02/15 02:31:53;;;;;;;9.50;6.85;;;;;;;5.27;44.35;99795.97;3401058;29;20070;-77
2022/02/15 02:33:37;;;;;;;10.77;7.47;;;;;;;5.28;44.41;99803.75;3398737;29;20056;-74
2022/02/15 02:35:19;;;;;;;9.85;5.97;;;;;;;5.26;44.54;99800.41;3412522;29;20517;-74
2022/02/15 02:36:59;;;;;;;9.60;7.13;;;;;;;5.23;44.87;99803.38;3400192;29;20070;-76
2022/02/15 02:38:41;;;;;;;12.57;8.55;;;;;;;5.28;44.69;99813.50;3398647;29;20747;-76
2022/02/15 02:40:22;;;;;;;12.27;7.13;;;;;;;5.25;44.67;99804.88;3412398;29;20106;-76
2022/02/15 02:42:03;;;;;;;9.10;6.38;;;;;;;5.27;44.76;99812.66;3401214;29;20071;-78
2022/02/15 02:43:44;;;;;;;9.93;7.07;;;;;;;5.24;44.56;99810.34;3412754;29;20478;-76
2022/02/15 02:45:25;;;;;;;11.82;6.88;;;;;;;5.24;44.75;99803.25;3415013;29;20418;-75
2022/02/15 02:47:07;;;;;;;10.23;6.78;;;;;;;5.25;44.89;99812.00;3415441;29;20182;-76
2022/02/15 02:48:48;;;;;;;9.80;7.20;;;;;;;5.25;44.79;99815.44;3401213;29;20047;-75
2022/02/15 02:50:30;;;;;;;9.82;6.72;;;;;;;5.25;44.93;99825.19;3412297;29;20118;-76
2022/02/15 02:52:12;;;;;;;10.23;7.93;;;;;;;5.24;44.83;99818.28;3400914;29;20459;-75
2022/02/15 02:53:54;;;;;;;10.63;7.90;;;;;;;5.24;44.94;99815.63;3398300;29;20048;-78
2022/02/15 02:55:38;;;;;;;11.30;8.00;;;;;;;5.21;44.94;99814.13;3411317;29;20114;-77
2022/02/15 02:57:21;;;;;;;10.43;7.53;;;;;;;5.22;45.10;99821.06;3414321;29;20466;-76
2022/02/15 02:59:02;;;;;;;13.30;6.93;;;;;;;5.21;45.04;99814.13;3400633;29;20487;-75
2022/02/15 03:00:44;;;;;;;10.05;6.70;;;;;;;5.23;44.93;99821.88;3398387;29;20042;-75
2022/02/15 03:02:30;;;;;;;10.02;7.35;;;;;;;5.23;45.05;99821.88;3412783;28;20130;-76
2022/02/15 03:04:11;;;;;;;9.20;6.72;;;;;;;5.21;45.08;99821.19;3414949;29;20054;-75
2022/02/15 03:05:52;;;;;;;11.20;7.55;;;;;;;5.20;45.28;99824.84;3400755;29;20080;-75
2022/02/15 03:07:34;;;;;;;10.65;7.28;;;;;;;5.18;45.14;99822.34;3411988;29;20043;-75
2022/02/15 03:09:15;;;;;;;12.55;7.95;;;;;;;5.18;45.33;99818.88;3400545;29;20130;-77
2022/02/15 03:10:56;;;;;;;11.18;7.28;;;;;;;5.16;45.18;99820.84;3400489;29;20075;-75
2022/02/15 03:13:03;;;;;;;9.63;7.00;;;;;;;5.14;45.19;99817.56;3403518;29;20051;-76
2022/02/15 03:14:47;;;;;;;9.18;7.18;;;;;;;5.19;45.25;99824.03;3387479;29;20051;-76
2022/02/15 03:16:28;;;;;;;12.05;7.60;;;;;;;5.18;45.21;99835.56;3387583;29;20047;-76
2022/02/15 03:18:09;;;;;;;12.18;8.00;;;;;;;5.16;45.37;99826.97;3406732;29;20439;-76
2022/02/15 03:19:51;;;;;;;13.45;7.65;;;;;;;5.15;45.34;99841.16;3414593;29;20047;-75
2022/02/15 03:21:33;;;;;;;10.15;7.25;;;;;;;5.14;45.42;99828.94;3400720;29;20063;-76
2022/02/15 03:23:13;;;;;;;15.40;7.35;;;;;;;5.14;45.35;99828.94;3397685;29;20523;-76
2022/02/15 03:24:54;;;;;;;15.20;7.53;;;;;;;5.12;45.45;99830.09;3400487;29;20047;-76
2022/02/15 03:26:35;;;;;;;11.70;6.70;;;;;;;5.11;45.46;99834.53;3411463;28;20035;-76
2022/02/15 03:28:17;;;;;;;;;;;;;;;5.21;45.29;99823.84;3400688;29;20134;-74
2022/02/15 03:29:58;;;;;;;9.63;6.78;;;;;;;5.11;45.43;99834.53;3424331;28;19929;-78
2022/02/15 03:31:42;;;;;;;12.25;7.05;;;;;;;5.08;45.49;99840.13;3402785;29;20481;-77
2022/02/15 03:33:24;;;;;;;11.38;6.78;;;;;;;5.04;45.65;99838.78;3389691;29;20626;-76
2022/02/15 03:35:05;;;;;;;9.43;6.78;;;;;;;5.01;45.70;99825.91;3421918;28;20055;-77
2022/02/15 03:36:47;;;;;;;14.63;7.72;;;;;;;4.97;45.66;99843.03;3389908;29;20040;-76
2022/02/15 03:38:28;;;;;;;12.23;7.20;;;;;;;4.96;45.95;99833.44;3407527;28;20050;-77
2022/02/15 03:40:10;;;;;;;11.68;7.18;;;;;;;4.95;45.96;99839.69;3400442;29;20458;-77
2022/02/15 03:43:58;;;;;;;12.18;7.97;;;;;;;4.93;45.91;99833.72;3400182;29;20051;-76
2022/02/15 03:45:46;;;;;;;9.98;6.75;;;;;;;4.90;46.03;99836.69;3398233;29;20044;-77
2022/02/15 03:47:29;;;;;;;10.68;7.60;;;;;;;4.88;46.04;99838.66;3399776;29;20523;-79
2022/02/15 03:49:11;;;;;;;11.65;7.55;;;;;;;4.86;46.16;99835.34;3384389;29;20075;-76
2022/02/15 03:50:53;;;;;;;10.68;7.32;;;;;;;4.88;46.16;99846.56;3395610;29;20044;-77
2022/02/15 03:52:34;;;;;;;11.70;7.17;;;;;;;4.87;46.11;99839.66;3384743;29;20044;-76
2022/02/15 03:54:15;;;;;;;10.55;6.57;;;;;;;4.86;46.11;99841.47;3397441;29;20099;-76
2022/02/15 03:55:56;;;;;;;12.55;7.93;;;;;;;4.87;45.98;99844.94;3384454;29;20048;-77
2022/02/15 03:57:37;;;;;;;10.98;7.20;;;;;;;4.86;46.16;99846.75;3396972;29;20044;-75
2022/02/15 03:59:20;;;;;;;11.70;6.93;;;;;;;4.82;46.06;99846.19;3397973;29;20074;-75
2022/02/15 04:01:03;;;;;;;9.57;6.80;;;;;;;4.82;46.13;99854.13;3397538;29;20195;-76
2022/02/15 04:02:44;;;;;;;15.35;7.75;;;;;;;4.82;46.18;99853.31;3397973;29;20044;-78
2022/02/15 04:04:25;;;;;;;10.40;7.28;;;;;;;4.74;46.11;99834.75;3400051;29;20048;-75
2022/02/15 04:06:06;;;;;;;11.20;7.63;;;;;;;4.81;46.26;99856.94;3400118;29;20086;-75
2022/02/15 04:07:47;;;;;;;10.35;6.93;;;;;;;4.77;46.28;99848.47;3396745;29;20419;-74
2022/02/15 04:09:28;;;;;;;11.93;7.90;;;;;;;4.70;46.25;99831.63;3411610;29;20057;-77
2022/02/15 04:11:09;;;;;;;10.82;6.50;;;;;;;4.81;46.25;99849.03;3387028;29;20040;-74
2022/02/15 04:12:50;;;;;;;13.10;8.13;;;;;;;4.81;46.15;99852.47;3397351;29;20189;-75
2022/02/15 04:14:31;;;;;;;10.00;7.57;;;;;;;4.79;46.17;99846.53;3398008;29;20088;-74
2022/02/15 04:16:13;;;;;;;12.32;6.93;;;;;;;4.82;46.31;99856.75;3386909;29;20407;-72
2022/02/15 04:17:54;;;;;;;13.20;7.60;;;;;;;4.81;46.15;99863.03;3385372;29;20104;-74
2022/02/15 04:19:35;;;;;;;12.35;8.13;;;;;;;4.81;46.23;99857.75;3405150;29;20042;-74
2022/02/15 04:21:23;;;;;;;8.88;6.55;;;;;;;4.82;46.23;99855.94;3398123;29;20070;-73
2022/02/15 04:23:05;;;;;;;12.00;8.35;;;;;;;4.77;46.15;99847.66;3411761;28;20043;-74
2022/02/15 04:24:46;;;;;;;12.90;8.20;;;;;;;4.78;46.21;99855.44;3402655;29;20052;-74
2022/02/15 04:26:27;;;;;;;12.63;7.80;;;;;;;4.80;46.27;99856.13;3426489;28;20053;-73
2022/02/15 04:28:07;;;;;;;10.90;7.35;;;;;;;4.78;46.19;99857.25;3404232;29;20035;-75
2022/02/15 04:29:48;;;;;;;10.80;7.00;;;;;;;4.80;46.21;99856.13;3401970;29;20495;-73
2022/02/15 04:31:29;;;;;;;12.53;7.83;;;;;;;4.80;46.26;99857.91;3399224;29;20039;-70
2022/02/15 04:33:11;;;;;;;9.52;6.80;;;;;;;4.78;46.29;99860.72;3399609;29;20374;-74
2022/02/15 04:34:53;;;;;;;12.73;7.75;;;;;;;4.52;46.50;99810.50;3400345;29;20126;-77
2022/02/15 04:36:34;;;;;;;10.93;7.55;;;;;;;4.75;46.43;99866.31;3402623;29;20438;-76
2022/02/15 04:38:16;;;;;;;12.95;7.90;;;;;;;4.74;46.34;99859.34;3426436;28;20525;-78
2022/02/15 04:39:57;;;;;;;12.63;7.95;;;;;;;4.74;46.42;99866.44;3418824;28;20039;-77
2022/02/15 04:41:39;;;;;;;13.20;8.23;;;;;;;4.74;46.47;99879.66;3402218;29;20104;-78
2022/02/15 04:43:26;;;;;;;11.48;7.50;;;;;;;4.72;46.46;99866.59;3400935;29;20086;-76
2022/02/15 04:45:07;;;;;;;12.15;8.43;;;;;;;4.62;46.46;99857.94;3399957;29;20051;-76
2022/02/15 04:47:07;;;;;;;12.23;7.88;;;;;;;4.63;46.36;99859.59;3402179;29;20586;-77
2022/02/15 04:48:48;;;;;;;14.85;7.43;;;;;;;4.56;46.52;99847.97;3388274;29;20528;-76
2022/02/15 04:50:31;;;;;;;10.57;6.78;;;;;;;4.75;46.56;99886.56;3399795;29;20040;-77
2022/02/15 04:52:15;;;;;;;11.00;7.65;;;;;;;4.73;46.42;99884.09;3424925;28;20051;-78
2022/02/15 04:53:58;;;;;;;14.27;9.18;;;;;;;4.68;46.51;99883.72;3404620;29;20549;-76
2022/02/15 04:55:38;;;;;;;11.18;7.90;;;;;;;4.66;46.29;99880.41;3387005;29;20043;-77
2022/02/15 04:57:19;;;;;;;13.60;8.10;;;;;;;4.69;46.23;99877.47;3397294;29;20644;-77
2022/02/15 04:59:00;;;;;;;10.07;7.55;;;;;;;4.68;46.50;99881.09;3386096;29;20052;-76
2022/02/15 05:00:41;;;;;;;14.65;8.05;;;;;;;4.70;46.37;99887.06;3399370;29;20044;-75
2022/02/15 05:02:51;;;;;;;10.98;6.88;;;;;;;4.74;46.42;99887.56;3401038;28;20102;-78
2022/02/15 05:04:50;;;;;;;12.50;7.32;;;;;;;4.73;46.26;99884.09;3402224;29;20423;-75
2022/02/15 05:06:33;;;;;;;10.90;7.22;;;;;;;4.75;46.37;99883.94;3388663;29;20543;-76
2022/02/15 05:08:13;;;;;;;11.70;7.57;;;;;;;4.75;46.21;99873.38;3410335;29;20035;-76
2022/02/15 05:09:54;;;;;;;9.40;6.70;;;;;;;4.72;46.25;99887.69;3402068;29;20043;-77
2022/02/15 05:11:35;;;;;;;10.25;7.45;;;;;;;4.73;46.46;99878.81;3426054;28;20050;-78
2022/02/15 05:13:18;;;;;;;13.27;7.70;;;;;;;4.69;46.44;99874.81;3419100;28;20047;-77
2022/02/15 05:15:15;;;;;;;13.80;8.13;;;;;;;4.71;46.50;99885.25;3402044;29;20491;-68
2022/02/15 05:17:24;;;;;;;10.43;6.88;;;;;;;4.74;47.06;99892.84;3411609;29;20047;-69
2022/02/15 05:19:08;;;;;;;10.70;6.72;;;;;;;4.80;47.92;99890.44;3400754;29;20046;-72
2022/02/15 05:20:49;;;;;;;11.33;6.83;;;;;;;4.88;48.79;99886.19;3399323;29;20056;-69
2022/02/15 05:22:31;;;;;;;11.82;7.35;;;;;;;4.98;49.25;99897.50;3399027;29;20302;-69
2022/02/15 05:24:12;;;;;;;11.95;7.78;;;;;;;5.06;49.59;99894.94;3385747;29;20039;-69
2022/02/15 05:26:00;;;;;;;13.55;7.20;;;;;;;5.15;50.11;99888.72;3412766;29;20047;-68
2022/02/15 05:28:01;;;;;;;13.88;7.45;;;;;;;5.25;50.22;99891.25;3396146;29;20119;-70
2022/02/15 05:29:43;;;;;;;11.93;8.15;;;;;;;5.33;50.24;99893.94;3401189;29;20047;-69
2022/02/15 05:31:46;;;;;;;12.45;7.57;;;;;;;5.49;50.16;99900.31;3415917;29;20050;-71
2022/02/15 05:33:27;;;;;;;10.45;7.30;;;;;;;5.57;50.25;99895.06;3388120;29;20210;-71
2022/02/15 05:35:10;;;;;;;9.93;6.90;;;;;;;5.69;50.29;99907.03;3410761;28;20222;-73
2022/02/15 05:36:55;;;;;;;11.82;7.70;;;;;;;5.80;50.20;99892.72;3401438;29;20048;-70
2022/02/15 05:38:36;;;;;;;13.43;6.95;;;;;;;5.94;50.69;99902.75;3425396;28;20046;-72
2022/02/15 05:40:17;;;;;;;12.40;7.18;;;;;;;6.04;50.51;99906.09;3417652;28;20047;-71
2022/02/15 05:42:11;;;;;;;12.15;7.85;;;;;;;6.12;50.29;99900.00;3401814;29;20048;-74
2022/02/15 05:43:52;;;;;;;9.90;7.32;;;;;;;6.21;51.07;99895.53;3398486;29;20050;-68
2022/02/15 05:45:35;;;;;;;11.77;8.13;;;;;;;6.28;50.88;99901.84;3385738;29;20047;-70
2022/02/15 05:47:26;;;;;;;11.65;7.53;;;;;;;6.25;50.25;99903.00;3399892;29;20503;-72
2022/02/15 05:49:09;;;;;;;10.43;7.05;;;;;;;6.26;49.89;99901.19;3399861;29;20597;-71
2022/02/15 05:51:12;;;;;;;11.75;7.20;;;;;;;6.27;49.76;99910.75;3415417;29;20562;-71
2022/02/15 05:53:09;;;;;;;14.48;8.70;;;;;;;6.29;49.40;99908.78;3401120;29;20043;-70
2022/02/15 05:54:49;;;;;;;11.60;6.78;;;;;;;6.33;49.34;99905.66;3401834;29;20069;-69
2022/02/15 05:56:32;;;;;;;13.63;7.00;;;;;;;6.39;49.37;99913.94;3399119;29;20055;-70
2022/02/15 05:58:30;;;;;;;10.68;7.90;;;;;;;6.54;49.30;99920.28;3400247;29;20049;-70
2022/02/15 06:00:14;;;;;;;10.77;7.43;;;;;;;6.70;48.55;99906.22;3398481;29;20107;-70
2022/02/15 06:02:03;;;;;;;10.50;7.07;;;;;;;6.94;48.45;99903.59;3399586;29;20047;-71
2022/02/15 06:04:16;;;;;;;;;;;;;;;7.33;47.71;99913.50;3392472;29;20496;-69
2022/02/15 06:06:07;;;;;;;9.85;6.93;;;;;;;7.54;47.56;99910.31;3400919;29;19923;-69
2022/02/15 06:07:47;;;;;;;8.52;5.78;;;;;;;7.76;47.29;99921.19;3398177;29;20095;-70
2022/02/15 06:09:39;;;;;;;11.02;6.65;;;;;;;8.02;46.86;99912.97;3399371;29;20055;-71
2022/02/15 06:11:20;;;;;;;10.07;6.72;;;;;;;8.23;46.76;99910.53;3412647;29;20126;-69
2022/02/15 06:13:01;;;;;;;12.48;6.78;;;;;;;8.53;46.11;99921.38;3401226;29;20044;-71
2022/02/15 06:14:44;;;;;;;9.07;5.22;;;;;;;8.83;45.82;99910.88;3398816;29;20043;-71
2022/02/15 06:16:28;;;;;;;9.27;6.60;;;;;;;9.17;45.23;99916.56;3398074;29;20531;-70
2022/02/15 06:18:17;;;;;;;11.07;7.57;;;;;;;9.51;45.01;99925.91;3399008;29;20079;-70
2022/02/15 06:20:03;;;;;;;8.73;6.68;;;;;;;9.84;44.23;99930.88;3398249;29;20056;-69
2022/02/15 06:21:52;;;;;;;7.88;5.93;;;;;;;10.17;44.16;99927.81;3398563;29;20031;-70
2022/02/15 06:23:38;;;;;;;9.23;5.88;;;;;;;10.50;43.45;99930.09;3398746;29;20083;-70
2022/02/15 06:25:22;;;;;;;8.52;6.70;;;;;;;10.77;43.02;99921.34;3398557;29;20048;-70
2022/02/15 06:27:07;;;;;;;8.38;6.18;;;;;;;11.14;42.53;99936.25;3398691;29;20138;-71
2022/02/15 06:28:47;;;;;;;9.30;7.13;;;;;;;11.39;41.75;99929.69;3411849;29;20039;-72
2022/02/15 06:30:33;;;;;;;8.88;6.93;;;;;;;11.62;41.07;99935.59;3399039;29;20040;-71
2022/02/15 06:32:18;;;;;;;12.15;7.95;;;;;;;11.82;40.62;99930.38;3397730;29;20036;-71
2022/02/15 06:34:00;;;;;;;8.65;6.78;;;;;;;11.94;40.06;99938.69;3384891;29;20439;-70
2022/02/15 06:35:41;;;;;;;11.88;6.85;;;;;;;12.05;39.44;99943.47;3384590;29;20143;-70
2022/02/15 06:37:26;;;;;;;10.52;6.70;;;;;;;12.28;39.12;99937.00;3385327;29;20074;-70
2022/02/15 06:39:09;;;;;;;10.00;6.50;;;;;;;12.48;38.88;99945.09;3385082;29;20059;-71
2022/02/15 06:40:51;;;;;;;9.13;7.00;;;;;;;12.70;38.39;99937.75;3385153;29;20048;-69
2022/02/15 06:42:42;;;;;;;10.65;6.22;;;;;;;12.86;37.74;99942.75;3386202;29;20075;-71
2022/02/15 06:44:23;;;;;;;10.30;7.07;;;;;;;13.02;37.20;99934.31;3397910;29;20056;-69
2022/02/15 06:46:05;;;;;;;11.88;6.68;;;;;;;13.25;37.02;99944.63;3400524;29;20185;-70
2022/02/15 06:47:47;;;;;;;11.27;7.13;;;;;;;13.45;36.63;99944.66;3385569;29;20188;-69
2022/02/15 06:49:28;;;;;;;9.38;6.55;;;;;;;13.64;36.08;99940.31;3382700;29;20423;-71
2022/02/15 06:51:44;;;;;;;11.82;6.40;;;;;;;13.95;35.75;99946.84;3360737;29;20053;-70
2022/02/15 06:53:27;;;;;;;8.25;6.18;;;;;;;14.13;35.23;99941.63;3354443;29;20060;-69
2022/02/15 06:55:23;;;;;;;8.57;6.43;;;;;;;14.38;34.98;99938.25;3385802;29;20040;-71
2022/02/15 06:57:04;;;;;;;10.60;6.97;;;;;;;14.60;34.51;99944.13;3384520;29;20415;-70
2022/02/15 06:58:46;;;;;;;10.50;7.20;;;;;;;14.82;34.14;99948.13;3381941;29;20146;-71
2022/02/15 07:00:33;;;;;;;9.23;6.43;;;;;;;15.07;34.05;99951.91;3385297;29;20044;-72
2022/02/15 07:02:13;;;;;;;8.93;5.97;;;;;;;15.32;33.71;99947.38;3371487;29;20074;-70
2022/02/15 07:03:54;;;;;;;8.85;6.80;;;;;;;15.59;33.71;99947.97;3381901;29;20040;-70
2022/02/15 07:05:35;;;;;;;11.25;7.28;;;;;;;15.81;33.21;99950.25;3397808;29;20054;-70
2022/02/15 07:07:16;;;;;;;12.38;7.45;;;;;;;16.00;32.55;99959.16;3387210;29;20147;-70
2022/02/15 07:09:03;;;;;;;9.02;6.35;;;;;;;16.14;32.30;99950.72;3384906;29;20059;-70
2022/02/15 07:10:54;;;;;;;8.32;6.68;;;;;;;16.36;32.14;99961.00;3374035;29;20393;-69
2022/02/15 07:12:35;;;;;;;10.95;6.80;;;;;;;16.61;32.00;99943.94;3391994;29;20091;-70
2022/02/15 07:14:28;;;;;;;8.00;6.18;;;;;;;16.87;31.42;99953.56;3374255;29;20052;-70
2022/02/15 07:16:13;;;;;;;10.60;6.55;;;;;;;17.02;31.56;99950.44;3381007;29;20487;-70
2022/02/15 07:17:56;;;;;;;8.73;6.28;;;;;;;17.07;31.17;99953.25;3384440;29;20059;-70
2022/02/15 07:19:46;;;;;;;6.50;5.68;;;;;;;17.12;31.62;99956.09;3385798;29;20188;-70
2022/02/15 07:21:36;;;;;;;9.85;6.82;;;;;;;17.18;31.36;99965.94;3399624;29;20063;-70
2022/02/15 07:23:56;;;;;;;9.65;6.68;;;;;;;17.25;30.75;99955.88;3362856;29;20576;-71
2022/02/15 07:25:55;;;;;;;8.25;6.45;;;;;;;17.28;30.56;99966.19;3373496;29;20044;-70
2022/02/15 07:28:03;;;;;;;10.63;6.93;;;;;;;17.23;30.36;99963.34;3373487;29;20060;-70
2022/02/15 07:29:45;;;;;;;7.80;6.90;;;;;;;17.25;30.12;99966.66;3372351;29;20056;-70
2022/02/15 07:31:39;;;;;;;8.05;6.20;;;;;;;17.44;30.04;99965.50;3347382;29;20609;-71
2022/02/15 07:33:20;;;;;;;9.90;7.33;;;;;;;17.59;29.48;99964.22;3369737;29;20135;-69
2022/02/15 07:35:01;;;;;;;11.02;7.60;;;;;;;17.59;29.37;99964.22;3360633;29;20513;-69
2022/02/15 07:36:42;;;;;;;16.40;7.90;;;;;;;17.60;29.01;99963.16;3370815;29;20047;-70
2022/02/15 07:38:23;;;;;;;8.73;6.73;;;;;;;17.77;29.15;99969.50;3373574;29;20048;-70
2022/02/15 07:40:04;;;;;;;7.82;5.80;;;;;;;18.06;29.00;99964.22;3372376;29;20299;-71
2022/02/15 07:41:47;;;;;;;8.40;6.55;;;;;;;18.45;29.21;99973.41;3373275;29;20072;-71
2022/02/15 07:43:27;;;;;;;8.70;6.97;;;;;;;18.79;28.57;99975.41;3373328;29;20048;-70
2022/02/15 07:45:18;;;;;;;9.38;6.90;;;;;;;19.12;28.35;99975.47;3360715;29;20048;-70
2022/02/15 07:46:58;;;;;;;9.77;6.55;;;;;;;19.34;27.93;99977.50;3370938;29;20036;-69
2022/02/15 07:48:39;;;;;;;8.37;6.50;;;;;;;19.50;27.69;99976.66;3347541;29;20164;-70
2022/02/15 07:50:22;;;;;;;12.00;6.43;;;;;;;19.61;27.24;99967.63;3367349;29;20079;-70
2022/02/15 07:52:04;;;;;;;8.40;6.90;;;;;;;19.86;26.91;99968.31;3360340;29;20117;-69
2022/02/15 07:53:45;;;;;;;8.23;6.22;;;;;;;20.21;27.34;99967.94;3370422;29;20048;-70
2022/02/15 07:55:25;;;;;;;8.07;6.40;;;;;;;20.57;26.71;99963.00;3392104;29;20078;-70
2022/02/15 07:57:07;;;;;;;9.10;6.73;;;;;;;20.93;26.54;99961.47;3398366;29;20067;-69
2022/02/15 07:58:54;;;;;;;8.18;5.72;;;;;;;21.28;26.46;99963.69;3391035;29;20535;-69
2022/02/15 08:00:35;;;;;;;10.13;6.60;;;;;;;21.67;26.05;99959.94;3400731;29;20045;-69
2022/02/15 08:02:20;;;;;;;10.35;6.47;;;;;;;21.97;25.67;99959.34;3390230;29;20155;-69
2022/02/15 08:04:01;;;;;;;10.45;6.50;;;;;;;22.28;25.12;99952.19;3389850;29;20130;-71
2022/02/15 08:05:45;;;;;;;8.15;6.50;;;;;;;22.58;24.88;99962.31;3376047;29;20563;-73
2022/02/15 08:07:32;;;;;;;7.05;6.18;;;;;;;22.85;24.30;99964.03;3387411;29;20048;-70
2022/02/15 08:09:16;;;;;;;8.88;6.70;;;;;;;23.08;24.56;99974.41;3389928;29;20554;-71
2022/02/15 08:10:58;;;;;;;6.55;5.88;;;;;;;23.22;24.17;99971.16;3390303;29;20051;-72
2022/02/15 08:12:38;;;;;;;;;;;;;;;23.42;24.60;99964.91;3392108;29;20048;-68
2022/02/15 08:14:19;;;;;;;7.88;6.32;;;;;;;23.12;24.06;99969.25;3402858;29;20454;-69
2022/02/15 08:16:00;;;;;;;8.37;7.13;;;;;;;22.79;24.29;99952.31;3403533;29;20500;-70